YPGV/GOV METAR and TAF weather

Enter ICAO airport designator
Station Type Date Time Source
YPGV METAR 2021/05/16 00:30 UTC NOAA

YPGV 160030Z AUTO 13015KT 9999 // SCT054 29/19 Q1013 RF00.0/000.0


Station Type Date Time Source
YPGV Decoded METAR 2021/05/16 00:30 UTC NOAA

Station name not available
May 15, 2021 - 08:30 PM EDT / 2021.05.16 0030 UTC
Wind: from the SE (130 degrees) at 17 MPH (15 KT):0
Visibility: greater than 7 mile(s):0
Sky conditions: partly cloudy
Temperature: 84 F (29 C)
Dew Point: 66 F (19 C)
Relative Humidity: 54%
Pressure (altimeter): 29.91 in. Hg (1013 hPa)
ob: YPGV 160030Z AUTO 13015KT 9999 // SCT054 29/19 Q1013 RF00.0/000.0
cycle: 0

Station Type Date Time Source
YPGV TAF 2021/05/15 20:00 UTC NOAA

TAF YPGV 151832Z 1520/1608 14016KT CAVOK
FM160600 17010KT CAVOK

Example: see airport list